sensor_id;sensor_type;location;lat;lon;timestamp;pressure;altitude;pressure_sealevel;temperature;humidity
82416;BME280;72058;47.782;10.618;2024-02-26T00:01:39;91626.16;;;3.82;54.45
82416;BME280;72058;47.782;10.618;2024-02-26T00:04:04;91622.94;;;3.89;54.31
82416;BME280;72058;47.782;10.618;2024-02-26T00:06:30;91622.91;;;3.97;54.07
82416;BME280;72058;47.782;10.618;2024-02-26T00:08:56;91620.84;;;3.94;53.59
82416;BME280;72058;47.782;10.618;2024-02-26T00:11:22;91622.19;;;3.79;54.38
82416;BME280;72058;47.782;10.618;2024-02-26T00:13:47;91619.38;;;3.76;54.56
82416;BME280;72058;47.782;10.618;2024-02-26T00:16:12;91617.41;;;3.85;54.42
82416;BME280;72058;47.782;10.618;2024-02-26T00:18:38;91619.66;;;3.83;54.50
82416;BME280;72058;47.782;10.618;2024-02-26T00:21:03;91623.47;;;3.82;54.56
82416;BME280;72058;47.782;10.618;2024-02-26T00:23:29;91621.56;;;3.83;54.63
82416;BME280;72058;47.782;10.618;2024-02-26T00:25:54;91614.19;;;3.71;55.12
82416;BME280;72058;47.782;10.618;2024-02-26T00:28:20;91606.13;;;3.71;55.35
82416;BME280;72058;47.782;10.618;2024-02-26T00:30:46;91605.78;;;3.72;55.21
82416;BME280;72058;47.782;10.618;2024-02-26T00:33:12;91607.34;;;3.82;54.87
82416;BME280;72058;47.782;10.618;2024-02-26T00:35:37;91606.78;;;3.68;55.45
82416;BME280;72058;47.782;10.618;2024-02-26T00:38:02;91614.34;;;3.74;55.45
82416;BME280;72058;47.782;10.618;2024-02-26T00:40:29;91613.56;;;3.65;56.09
82416;BME280;72058;47.782;10.618;2024-02-26T00:42:54;91618.91;;;3.74;55.79
82416;BME280;72058;47.782;10.618;2024-02-26T00:45:19;91608.00;;;3.70;55.77
82416;BME280;72058;47.782;10.618;2024-02-26T00:47:45;91612.88;;;3.77;55.80
82416;BME280;72058;47.782;10.618;2024-02-26T00:50:12;91614.38;;;3.66;56.24
82416;BME280;72058;47.782;10.618;2024-02-26T00:52:38;91611.53;;;3.62;56.46
82416;BME280;72058;47.782;10.618;2024-02-26T00:55:03;91612.59;;;3.70;56.25
82416;BME280;72058;47.782;10.618;2024-02-26T00:57:29;91614.09;;;3.59;56.70
82416;BME280;72058;47.782;10.618;2024-02-26T00:59:54;91608.03;;;3.62;56.44
82416;BME280;72058;47.782;10.618;2024-02-26T01:02:21;91613.03;;;3.80;56.00
82416;BME280;72058;47.782;10.618;2024-02-26T01:04:47;91623.94;;;3.84;55.68
82416;BME280;72058;47.782;10.618;2024-02-26T01:07:12;91623.66;;;3.68;55.87
82416;BME280;72058;47.782;10.618;2024-02-26T01:09:37;91620.50;;;3.75;55.78
82416;BME280;72058;47.782;10.618;2024-02-26T01:12:03;91623.34;;;3.70;56.04
82416;BME280;72058;47.782;10.618;2024-02-26T01:14:29;91615.78;;;3.63;56.35
82416;BME280;72058;47.782;10.618;2024-02-26T01:16:54;91605.84;;;3.64;56.53
82416;BME280;72058;47.782;10.618;2024-02-26T01:19:20;91608.44;;;3.81;55.30
82416;BME280;72058;47.782;10.618;2024-02-26T01:21:45;91605.13;;;3.84;55.58
82416;BME280;72058;47.782;10.618;2024-02-26T01:24:11;91603.78;;;3.61;56.08
82416;BME280;72058;47.782;10.618;2024-02-26T01:26:36;91597.13;;;3.67;55.85
82416;BME280;72058;47.782;10.618;2024-02-26T01:29:02;91598.81;;;3.42;56.88
82416;BME280;72058;47.782;10.618;2024-02-26T01:31:27;91590.75;;;3.42;56.91
82416;BME280;72058;47.782;10.618;2024-02-26T01:33:52;91587.25;;;3.50;56.98
82416;BME280;72058;47.782;10.618;2024-02-26T01:36:18;91581.25;;;3.44;56.86
82416;BME280;72058;47.782;10.618;2024-02-26T01:38:43;91581.47;;;3.60;56.45
82416;BME280;72058;47.782;10.618;2024-02-26T01:41:08;91585.44;;;3.63;56.60
82416;BME280;72058;47.782;10.618;2024-02-26T01:43:34;91583.22;;;3.65;56.42
82416;BME280;72058;47.782;10.618;2024-02-26T01:45:59;91584.28;;;3.72;55.85
82416;BME280;72058;47.782;10.618;2024-02-26T01:48:25;91584.59;;;3.71;55.86
82416;BME280;72058;47.782;10.618;2024-02-26T01:50:51;91583.72;;;3.88;55.68
82416;BME280;72058;47.782;10.618;2024-02-26T01:53:17;91588.69;;;3.77;55.69
82416;BME280;72058;47.782;10.618;2024-02-26T01:55:44;91588.56;;;3.73;55.75
82416;BME280;72058;47.782;10.618;2024-02-26T01:58:10;91587.28;;;3.71;56.08
82416;BME280;72058;47.782;10.618;2024-02-26T02:00:36;91582.81;;;3.46;56.89
82416;BME280;72058;47.782;10.618;2024-02-26T02:03:03;91575.56;;;3.46;56.88
82416;BME280;72058;47.782;10.618;2024-02-26T02:05:29;91573.97;;;3.45;56.98
82416;BME280;72058;47.782;10.618;2024-02-26T02:07:55;91572.63;;;3.30;57.79
82416;BME280;72058;47.782;10.618;2024-02-26T02:10:21;91569.97;;;3.60;56.76
82416;BME280;72058;47.782;10.618;2024-02-26T02:12:51;91575.59;;;3.37;57.82
82416;BME280;72058;47.782;10.618;2024-02-26T02:15:16;91574.69;;;3.25;58.32
82416;BME280;72058;47.782;10.618;2024-02-26T02:17:42;91577.50;;;3.28;58.71
82416;BME280;72058;47.782;10.618;2024-02-26T02:20:09;91578.47;;;3.32;58.47
82416;BME280;72058;47.782;10.618;2024-02-26T02:22:37;91579.81;;;3.47;58.20
82416;BME280;72058;47.782;10.618;2024-02-26T02:25:03;91582.19;;;3.49;58.21
82416;BME280;72058;47.782;10.618;2024-02-26T02:27:29;91576.50;;;3.50;58.35
82416;BME280;72058;47.782;10.618;2024-02-26T02:29:55;91569.28;;;3.33;58.81
82416;BME280;72058;47.782;10.618;2024-02-26T02:32:21;91564.06;;;3.28;59.09
82416;BME280;72058;47.782;10.618;2024-02-26T02:34:46;91563.44;;;3.31;59.26
82416;BME280;72058;47.782;10.618;2024-02-26T02:37:12;91563.84;;;3.51;58.99
82416;BME280;72058;47.782;10.618;2024-02-26T02:39:37;91572.69;;;3.51;59.04
82416;BME280;72058;47.782;10.618;2024-02-26T02:42:03;91570.94;;;3.55;59.07
82416;BME280;72058;47.782;10.618;2024-02-26T02:44:28;91572.59;;;3.68;58.76
82416;BME280;72058;47.782;10.618;2024-02-26T02:46:54;91584.31;;;3.64;58.82
82416;BME280;72058;47.782;10.618;2024-02-26T02:51:44;91579.75;;;3.64;58.64
82416;BME280;72058;47.782;10.618;2024-02-26T02:54:10;91580.72;;;3.60;58.67
82416;BME280;72058;47.782;10.618;2024-02-26T02:56:35;91574.03;;;3.66;58.70
82416;BME280;72058;47.782;10.618;2024-02-26T02:59:02;91575.63;;;3.67;58.88
82416;BME280;72058;47.782;10.618;2024-02-26T03:01:27;91579.75;;;3.64;58.88
82416;BME280;72058;47.782;10.618;2024-02-26T03:03:52;91575.94;;;3.65;58.74
82416;BME280;72058;47.782;10.618;2024-02-26T03:06:18;91575.97;;;3.57;59.35
82416;BME280;72058;47.782;10.618;2024-02-26T03:08:43;91579.41;;;3.66;59.23
82416;BME280;72058;47.782;10.618;2024-02-26T03:11:13;91576.72;;;3.66;59.03
82416;BME280;72058;47.782;10.618;2024-02-26T03:13:39;91583.19;;;3.73;58.70
82416;BME280;72058;47.782;10.618;2024-02-26T03:16:05;91572.09;;;3.75;58.76
82416;BME280;72058;47.782;10.618;2024-02-26T03:18:31;91573.69;;;3.76;59.04
82416;BME280;72058;47.782;10.618;2024-02-26T03:20:56;91582.25;;;3.99;58.23
82416;BME280;72058;47.782;10.618;2024-02-26T03:23:21;91586.13;;;3.80;58.90
82416;BME280;72058;47.782;10.618;2024-02-26T03:25:47;91575.59;;;3.75;59.18
82416;BME280;72058;47.782;10.618;2024-02-26T03:28:13;91585.28;;;3.68;59.46
82416;BME280;72058;47.782;10.618;2024-02-26T03:30:38;91578.66;;;3.57;59.87
82416;BME280;72058;47.782;10.618;2024-02-26T03:33:03;91581.00;;;3.67;59.79
82416;BME280;72058;47.782;10.618;2024-02-26T03:35:29;91576.47;;;3.59;59.89
82416;BME280;72058;47.782;10.618;2024-02-26T03:37:54;91581.00;;;3.67;59.81
82416;BME280;72058;47.782;10.618;2024-02-26T03:40:19;91582.59;;;3.68;59.65
82416;BME280;72058;47.782;10.618;2024-02-26T03:42:45;91586.38;;;3.67;59.86
82416;BME280;72058;47.782;10.618;2024-02-26T03:45:11;91583.03;;;3.70;59.78
82416;BME280;72058;47.782;10.618;2024-02-26T03:47:38;91586.66;;;3.74;59.51
82416;BME280;72058;47.782;10.618;2024-02-26T03:50:05;91582.19;;;3.78;59.71
82416;BME280;72058;47.782;10.618;2024-02-26T03:52:31;91574.28;;;3.81;59.55
82416;BME280;72058;47.782;10.618;2024-02-26T03:54:57;91566.06;;;3.78;59.45
82416;BME280;72058;47.782;10.618;2024-02-26T03:57:22;91578.63;;;3.65;59.84
82416;BME280;72058;47.782;10.618;2024-02-26T03:59:47;91579.41;;;3.66;60.18
82416;BME280;72058;47.782;10.618;2024-02-26T04:02:13;91584.03;;;3.86;59.46
82416;BME280;72058;47.782;10.618;2024-02-26T04:04:38;91572.84;;;3.84;59.41
82416;BME280;72058;47.782;10.618;2024-02-26T04:07:04;91572.22;;;3.78;59.97
82416;BME280;72058;47.782;10.618;2024-02-26T04:09:31;91567.00;;;3.82;59.68
82416;BME280;72058;47.782;10.618;2024-02-26T04:11:56;91572.94;;;3.67;60.35
82416;BME280;72058;47.782;10.618;2024-02-26T04:14:22;91563.84;;;3.80;59.96
82416;BME280;72058;47.782;10.618;2024-02-26T04:16:47;91569.00;;;3.64;60.60
82416;BME280;72058;47.782;10.618;2024-02-26T04:19:16;91574.41;;;3.56;60.44
82416;BME280;72058;47.782;10.618;2024-02-26T04:21:42;91575.00;;;3.61;60.68
82416;BME280;72058;47.782;10.618;2024-02-26T04:24:07;91575.78;;;3.62;60.36
82416;BME280;72058;47.782;10.618;2024-02-26T04:26:32;91576.72;;;3.66;60.82
82416;BME280;72058;47.782;10.618;2024-02-26T04:28:58;91575.66;;;3.88;60.21
82416;BME280;72058;47.782;10.618;2024-02-26T04:31:24;91578.81;;;3.90;60.31
82416;BME280;72058;47.782;10.618;2024-02-26T04:33:49;91572.06;;;3.84;60.32
82416;BME280;72058;47.782;10.618;2024-02-26T04:36:15;91574.75;;;3.84;60.19
82416;BME280;72058;47.782;10.618;2024-02-26T04:38:42;91580.34;;;3.99;60.04
82416;BME280;72058;47.782;10.618;2024-02-26T04:41:07;91581.72;;;4.05;59.59
82416;BME280;72058;47.782;10.618;2024-02-26T04:43:32;91587.75;;;4.02;59.84
82416;BME280;72058;47.782;10.618;2024-02-26T04:45:58;91595.50;;;4.04;59.90
82416;BME280;72058;47.782;10.618;2024-02-26T04:48:23;91591.69;;;4.05;59.99
82416;BME280;72058;47.782;10.618;2024-02-26T04:50:48;91587.41;;;4.04;59.71
82416;BME280;72058;47.782;10.618;2024-02-26T04:53:14;91589.00;;;4.05;60.04
82416;BME280;72058;47.782;10.618;2024-02-26T04:55:39;91593.31;;;3.97;60.24
82416;BME280;72058;47.782;10.618;2024-02-26T04:58:04;91589.16;;;3.79;61.13
82416;BME280;72058;47.782;10.618;2024-02-26T05:00:30;91588.22;;;3.75;61.27
82416;BME280;72058;47.782;10.618;2024-02-26T05:02:55;91589.72;;;3.93;60.99
82416;BME280;72058;47.782;10.618;2024-02-26T05:05:20;91590.53;;;3.85;60.96
82416;BME280;72058;47.782;10.618;2024-02-26T05:07:45;91596.00;;;3.97;60.81
82416;BME280;72058;47.782;10.618;2024-02-26T05:10:11;91594.13;;;4.18;59.58
82416;BME280;72058;47.782;10.618;2024-02-26T05:12:36;91596.06;;;4.18;59.52
82416;BME280;72058;47.782;10.618;2024-02-26T05:15:03;91587.38;;;4.12;59.78
82416;BME280;72058;47.782;10.618;2024-02-26T05:17:28;91596.56;;;3.82;60.94
82416;BME280;72058;47.782;10.618;2024-02-26T05:19:54;91598.16;;;3.83;61.14
82416;BME280;72058;47.782;10.618;2024-02-26T05:22:19;91592.06;;;3.95;60.64
82416;BME280;72058;47.782;10.618;2024-02-26T05:24:45;91596.75;;;4.06;60.01
82416;BME280;72058;47.782;10.618;2024-02-26T05:27:10;91600.28;;;3.98;60.32
82416;BME280;72058;47.782;10.618;2024-02-26T05:29:37;91600.75;;;4.00;60.50
82416;BME280;72058;47.782;10.618;2024-02-26T05:32:03;91598.66;;;4.06;60.04
82416;BME280;72058;47.782;10.618;2024-02-26T05:34:28;91601.50;;;4.09;60.01
82416;BME280;72058;47.782;10.618;2024-02-26T05:36:55;91605.56;;;4.15;59.82
82416;BME280;72058;47.782;10.618;2024-02-26T05:39:20;91606.81;;;4.18;59.08
82416;BME280;72058;47.782;10.618;2024-02-26T05:41:46;91605.88;;;4.14;59.53
82416;BME280;72058;47.782;10.618;2024-02-26T05:44:11;91603.34;;;4.17;59.86
82416;BME280;72058;47.782;10.618;2024-02-26T05:46:36;91601.22;;;4.23;59.77
82416;BME280;72058;47.782;10.618;2024-02-26T05:49:02;91607.94;;;4.38;59.00
82416;BME280;72058;47.782;10.618;2024-02-26T05:51:28;91606.28;;;4.25;59.64
82416;BME280;72058;47.782;10.618;2024-02-26T05:53:53;91601.28;;;4.14;60.34
82416;BME280;72058;47.782;10.618;2024-02-26T05:56:21;91606.47;;;4.19;60.21
82416;BME280;72058;47.782;10.618;2024-02-26T05:58:46;91612.06;;;4.14;60.28
82416;BME280;72058;47.782;10.618;2024-02-26T06:01:12;91613.63;;;4.15;60.46
82416;BME280;72058;47.782;10.618;2024-02-26T06:03:38;91617.44;;;4.14;60.64
82416;BME280;72058;47.782;10.618;2024-02-26T06:06:03;91612.47;;;4.25;59.87
82416;BME280;72058;47.782;10.618;2024-02-26T06:08:29;91615.78;;;4.22;59.37
82416;BME280;72058;47.782;10.618;2024-02-26T06:10:54;91628.13;;;4.23;60.18
82416;BME280;72058;47.782;10.618;2024-02-26T06:13:20;91629.84;;;4.28;59.82
82416;BME280;72058;47.782;10.618;2024-02-26T06:15:45;91629.34;;;4.34;59.59
82416;BME280;72058;47.782;10.618;2024-02-26T06:18:11;91638.53;;;4.33;59.82
82416;BME280;72058;47.782;10.618;2024-02-26T06:20:36;91639.13;;;4.39;60.76
82416;BME280;72058;47.782;10.618;2024-02-26T06:23:02;91644.88;;;4.29;61.77
82416;BME280;72058;47.782;10.618;2024-02-26T06:25:27;91653.78;;;4.20;62.81
82416;BME280;72058;47.782;10.618;2024-02-26T06:27:52;91659.09;;;4.08;63.39
82416;BME280;72058;47.782;10.618;2024-02-26T06:30:18;91666.22;;;4.34;62.60
82416;BME280;72058;47.782;10.618;2024-02-26T06:32:43;91664.09;;;4.18;63.16
82416;BME280;72058;47.782;10.618;2024-02-26T06:35:08;91677.38;;;4.24;63.34
82416;BME280;72058;47.782;10.618;2024-02-26T06:37:36;91685.69;;;4.10;63.58
82416;BME280;72058;47.782;10.618;2024-02-26T06:40:02;91694.69;;;4.05;63.91
82416;BME280;72058;47.782;10.618;2024-02-26T06:42:29;91691.00;;;4.18;63.88
82416;BME280;72058;47.782;10.618;2024-02-26T06:44:55;91699.16;;;4.01;64.46
82416;BME280;72058;47.782;10.618;2024-02-26T06:47:21;91693.19;;;4.25;63.44
82416;BME280;72058;47.782;10.618;2024-02-26T06:49:46;91696.22;;;4.44;62.61
82416;BME280;72058;47.782;10.618;2024-02-26T06:52:11;91688.22;;;4.36;62.96
82416;BME280;72058;47.782;10.618;2024-02-26T06:54:37;91669.56;;;4.31;63.20
82416;BME280;72058;47.782;10.618;2024-02-26T06:57:03;91657.50;;;4.37;62.72
82416;BME280;72058;47.782;10.618;2024-02-26T06:59:28;91661.50;;;4.31;61.37
82416;BME280;72058;47.782;10.618;2024-02-26T07:01:53;91664.44;;;4.38;61.02
82416;BME280;72058;47.782;10.618;2024-02-26T07:04:20;91665.19;;;4.47;61.07
82416;BME280;72058;47.782;10.618;2024-02-26T07:06:45;91657.78;;;4.85;56.63
82416;BME280;72058;47.782;10.618;2024-02-26T07:09:11;91660.94;;;4.87;56.07
82416;BME280;72058;47.782;10.618;2024-02-26T07:11:37;91659.50;;;4.90;55.94
82416;BME280;72058;47.782;10.618;2024-02-26T07:14:03;91659.28;;;4.95;56.23
82416;BME280;72058;47.782;10.618;2024-02-26T07:16:28;91660.59;;;5.10;57.38
82416;BME280;72058;47.782;10.618;2024-02-26T07:18:53;91667.78;;;5.39;56.02
82416;BME280;72058;47.782;10.618;2024-02-26T07:21:19;91673.06;;;5.35;57.10
82416;BME280;72058;47.782;10.618;2024-02-26T07:23:44;91680.69;;;5.33;59.79
82416;BME280;72058;47.782;10.618;2024-02-26T07:26:10;91669.72;;;5.17;60.68
82416;BME280;72058;47.782;10.618;2024-02-26T07:28:37;91673.63;;;5.08;60.21
82416;BME280;72058;47.782;10.618;2024-02-26T07:31:02;91678.22;;;5.07;60.40
82416;BME280;72058;47.782;10.618;2024-02-26T07:33:28;91670.91;;;5.08;60.33
82416;BME280;72058;47.782;10.618;2024-02-26T07:35:53;91674.31;;;5.17;59.87
82416;BME280;72058;47.782;10.618;2024-02-26T07:38:19;91663.41;;;5.46;58.95
82416;BME280;72058;47.782;10.618;2024-02-26T07:40:44;91665.56;;;5.53;58.85
82416;BME280;72058;47.782;10.618;2024-02-26T07:43:10;91668.94;;;5.50;58.83
82416;BME280;72058;47.782;10.618;2024-02-26T07:45:35;91677.69;;;5.47;58.93
82416;BME280;72058;47.782;10.618;2024-02-26T07:48:02;91680.91;;;5.40;59.23
82416;BME280;72058;47.782;10.618;2024-02-26T07:50:27;91689.34;;;5.39;60.06
82416;BME280;72058;47.782;10.618;2024-02-26T07:52:52;91695.09;;;5.49;60.19
82416;BME280;72058;47.782;10.618;2024-02-26T07:55:18;91694.00;;;5.50;60.34
82416;BME280;72058;47.782;10.618;2024-02-26T07:57:44;91688.59;;;5.50;60.18
82416;BME280;72058;47.782;10.618;2024-02-26T08:00:10;91689.91;;;5.44;60.29
82416;BME280;72058;47.782;10.618;2024-02-26T08:02:36;91689.91;;;5.44;59.99
82416;BME280;72058;47.782;10.618;2024-02-26T08:05:01;91694.78;;;5.51;59.40
82416;BME280;72058;47.782;10.618;2024-02-26T08:07:26;91692.88;;;5.51;59.33
82416;BME280;72058;47.782;10.618;2024-02-26T08:09:52;91692.00;;;5.59;58.70
82416;BME280;72058;47.782;10.618;2024-02-26T08:12:17;91696.06;;;5.65;58.69
82416;BME280;72058;47.782;10.618;2024-02-26T08:14:42;91691.03;;;5.76;57.81
82416;BME280;72058;47.782;10.618;2024-02-26T08:17:09;91691.06;;;5.88;57.48
82416;BME280;72058;47.782;10.618;2024-02-26T08:19:34;91698.75;;;5.98;57.64
82416;BME280;72058;47.782;10.618;2024-02-26T08:22:01;91691.44;;;5.99;57.23
82416;BME280;72058;47.782;10.618;2024-02-26T08:24:26;91685.47;;;5.93;56.91
82416;BME280;72058;47.782;10.618;2024-02-26T08:26:52;91690.88;;;5.93;57.15
82416;BME280;72058;47.782;10.618;2024-02-26T08:29:17;91687.63;;;6.12;56.33
82416;BME280;72058;47.782;10.618;2024-02-26T08:31:42;91689.28;;;6.04;56.36
82416;BME280;72058;47.782;10.618;2024-02-26T08:34:08;91687.63;;;6.12;56.63
82416;BME280;72058;47.782;10.618;2024-02-26T08:36:34;91689.19;;;6.13;56.52
82416;BME280;72058;47.782;10.618;2024-02-26T08:38:59;91682.91;;;6.09;57.06
82416;BME280;72058;47.782;10.618;2024-02-26T08:41:25;91678.41;;;6.13;57.39
82416;BME280;72058;47.782;10.618;2024-02-26T08:43:51;91684.28;;;6.27;57.20
82416;BME280;72058;47.782;10.618;2024-02-26T08:46:16;91679.19;;;6.38;56.50
82416;BME280;72058;47.782;10.618;2024-02-26T08:48:42;91677.97;;;6.35;56.98
82416;BME280;72058;47.782;10.618;2024-02-26T08:51:08;91681.34;;;6.32;57.47
82416;BME280;72058;47.782;10.618;2024-02-26T08:53:34;91669.09;;;6.35;57.93
82416;BME280;72058;47.782;10.618;2024-02-26T08:56:00;91671.75;;;6.47;57.95
82416;BME280;72058;47.782;10.618;2024-02-26T08:58:27;91669.75;;;6.44;57.92
82416;BME280;72058;47.782;10.618;2024-02-26T09:00:52;91673.56;;;6.55;57.95
82416;BME280;72058;47.782;10.618;2024-02-26T09:03:18;91676.25;;;6.55;57.46
82416;BME280;72058;47.782;10.618;2024-02-26T09:05:43;91665.69;;;6.50;58.10
82416;BME280;72058;47.782;10.618;2024-02-26T09:08:08;91661.16;;;6.54;57.96
82416;BME280;72058;47.782;10.618;2024-02-26T09:10:34;91662.88;;;6.59;58.45
82416;BME280;72058;47.782;10.618;2024-02-26T09:12:59;91662.97;;;6.62;58.00
82416;BME280;72058;47.782;10.618;2024-02-26T09:15:24;91663.66;;;6.59;58.23
82416;BME280;72058;47.782;10.618;2024-02-26T09:17:50;91666.91;;;6.65;58.14
82416;BME280;72058;47.782;10.618;2024-02-26T09:20:16;91666.13;;;6.64;58.11
82416;BME280;72058;47.782;10.618;2024-02-26T09:22:45;91656.88;;;6.65;58.36
82416;BME280;72058;47.782;10.618;2024-02-26T09:25:11;91660.34;;;6.78;57.85
82416;BME280;72058;47.782;10.618;2024-02-26T09:27:36;91665.06;;;6.81;57.13
82416;BME280;72058;47.782;10.618;2024-02-26T09:30:02;91654.38;;;6.84;56.06
82416;BME280;72058;47.782;10.618;2024-02-26T09:32:27;91650.56;;;6.85;56.29
82416;BME280;72058;47.782;10.618;2024-02-26T09:34:53;91656.38;;;6.88;56.76
82416;BME280;72058;47.782;10.618;2024-02-26T09:37:18;91657.38;;;6.95;56.75
82416;BME280;72058;47.782;10.618;2024-02-26T09:39:43;91651.19;;;6.95;56.76
82416;BME280;72058;47.782;10.618;2024-02-26T09:42:11;91653.56;;;6.96;57.38
82416;BME280;72058;47.782;10.618;2024-02-26T09:44:40;91666.59;;;7.06;57.29
82416;BME280;72058;47.782;10.618;2024-02-26T09:47:08;91660.59;;;7.13;56.34
82416;BME280;72058;47.782;10.618;2024-02-26T09:49:35;91668.81;;;7.16;57.30
82416;BME280;72058;47.782;10.618;2024-02-26T09:52:01;91666.19;;;7.20;57.57
82416;BME280;72058;47.782;10.618;2024-02-26T09:54:28;91666.31;;;7.23;57.61
82416;BME280;72058;47.782;10.618;2024-02-26T09:56:59;91661.56;;;7.33;57.13
82416;BME280;72058;47.782;10.618;2024-02-26T09:59:26;91665.13;;;7.37;57.35
82416;BME280;72058;47.782;10.618;2024-02-26T10:01:53;91666.13;;;7.44;57.46
82416;BME280;72058;47.782;10.618;2024-02-26T10:04:19;91671.41;;;7.53;57.62
82416;BME280;72058;47.782;10.618;2024-02-26T10:06:45;91673.84;;;7.58;57.55
82416;BME280;72058;47.782;10.618;2024-02-26T10:09:11;91682.81;;;7.62;57.85
82416;BME280;72058;47.782;10.618;2024-02-26T10:11:36;91684.16;;;7.68;57.57
82416;BME280;72058;47.782;10.618;2024-02-26T10:14:02;91679.09;;;7.67;57.86
82416;BME280;72058;47.782;10.618;2024-02-26T10:16:28;91685.47;;;7.74;58.00
82416;BME280;72058;47.782;10.618;2024-02-26T10:18:54;91691.19;;;7.85;57.13
82416;BME280;72058;47.782;10.618;2024-02-26T10:21:20;91691.59;;;7.87;57.17
82416;BME280;72058;47.782;10.618;2024-02-26T10:23:46;91694.88;;;7.92;56.60
82416;BME280;72058;47.782;10.618;2024-02-26T10:26:13;91687.59;;;7.96;57.08
82416;BME280;72058;47.782;10.618;2024-02-26T10:28:39;91684.41;;;8.07;55.48
82416;BME280;72058;47.782;10.618;2024-02-26T10:31:05;91689.13;;;8.10;55.83
82416;BME280;72058;47.782;10.618;2024-02-26T10:33:33;91685.00;;;8.16;53.23
82416;BME280;72058;47.782;10.618;2024-02-26T10:36:01;91689.81;;;8.22;54.47
82416;BME280;72058;47.782;10.618;2024-02-26T10:38:26;91686.72;;;8.36;52.35
82416;BME280;72058;47.782;10.618;2024-02-26T10:40:51;91686.63;;;8.48;52.24
82416;BME280;72058;47.782;10.618;2024-02-26T10:43:17;91682.50;;;8.54;52.73
82416;BME280;72058;47.782;10.618;2024-02-26T10:45:43;91685.72;;;8.75;51.04
82416;BME280;72058;47.782;10.618;2024-02-26T10:48:10;91682.31;;;8.79;51.07
82416;BME280;72058;47.782;10.618;2024-02-26T10:50:37;91687.09;;;8.85;51.19
82416;BME280;72058;47.782;10.618;2024-02-26T10:53:03;91685.53;;;8.84;52.16
82416;BME280;72058;47.782;10.618;2024-02-26T10:55:30;91682.09;;;8.87;52.00
82416;BME280;72058;47.782;10.618;2024-02-26T10:57:58;91681.66;;;9.01;49.59
82416;BME280;72058;47.782;10.618;2024-02-26T11:00:24;91688.94;;;9.16;47.98
82416;BME280;72058;47.782;10.618;2024-02-26T11:02:50;91688.53;;;9.33;48.30
82416;BME280;72058;47.782;10.618;2024-02-26T11:05:17;91684.13;;;9.44;48.04
82416;BME280;72058;47.782;10.618;2024-02-26T11:07:42;91690.47;;;9.52;48.47
82416;BME280;72058;47.782;10.618;2024-02-26T11:10:11;91685.75;;;9.49;49.64
82416;BME280;72058;47.782;10.618;2024-02-26T11:12:39;91682.53;;;9.63;46.05
82416;BME280;72058;47.782;10.618;2024-02-26T11:15:05;91689.19;;;9.65;46.71
82416;BME280;72058;47.782;10.618;2024-02-26T11:17:31;91686.69;;;9.76;47.62
82416;BME280;72058;47.782;10.618;2024-02-26T11:19:58;91684.69;;;9.73;47.90
82416;BME280;72058;47.782;10.618;2024-02-26T11:22:27;91683.97;;;9.76;47.68
82416;BME280;72058;47.782;10.618;2024-02-26T11:24:54;91693.38;;;9.82;47.53
82416;BME280;72058;47.782;10.618;2024-02-26T11:27:24;91692.56;;;9.78;48.47
82416;BME280;72058;47.782;10.618;2024-02-26T11:29:52;91703.41;;;9.78;49.40
82416;BME280;72058;47.782;10.618;2024-02-26T11:32:19;91691.41;;;9.79;49.74
82416;BME280;72058;47.782;10.618;2024-02-26T11:34:45;91692.59;;;9.81;50.42
82416;BME280;72058;47.782;10.618;2024-02-26T11:37:15;91690.81;;;9.89;49.90
82416;BME280;72058;47.782;10.618;2024-02-26T11:39:42;91704.47;;;9.93;50.05
82416;BME280;72058;47.782;10.618;2024-02-26T11:42:08;91702.22;;;9.98;51.22
82416;BME280;72058;47.782;10.618;2024-02-26T11:44:34;91701.81;;;9.96;51.79
82416;BME280;72058;47.782;10.618;2024-02-26T11:47:09;91703.38;;;9.97;52.45
82416;BME280;72058;47.782;10.618;2024-02-26T11:49:35;91697.22;;;10.00;53.24
82416;BME280;72058;47.782;10.618;2024-02-26T11:52:05;91700.88;;;10.08;53.27
82416;BME280;72058;47.782;10.618;2024-02-26T11:54:51;91700.03;;;10.04;53.73
82416;BME280;72058;47.782;10.618;2024-02-26T11:57:24;91698.06;;;10.04;53.46
82416;BME280;72058;47.782;10.618;2024-02-26T11:59:54;91700.78;;;10.04;53.28
82416;BME280;72058;47.782;10.618;2024-02-26T12:05:18;91704.44;;;10.12;53.02
82416;BME280;72058;47.782;10.618;2024-02-26T12:07:49;91705.03;;;10.02;53.14
82416;BME280;72058;47.782;10.618;2024-02-26T12:10:25;91705.81;;;10.02;53.48
82416;BME280;72058;47.782;10.618;2024-02-26T12:15:38;91709.44;;;10.10;53.81
82416;BME280;72058;47.782;10.618;2024-02-26T12:18:06;91709.50;;;10.13;53.55
82416;BME280;72058;47.782;10.618;2024-02-26T12:20:33;91718.44;;;10.14;52.79
82416;BME280;72058;47.782;10.618;2024-02-26T12:22:58;91718.19;;;10.19;52.92
82416;BME280;72058;47.782;10.618;2024-02-26T12:25:26;91718.97;;;10.19;53.42
82416;BME280;72058;47.782;10.618;2024-02-26T12:27:53;91724.59;;;10.11;53.30
82416;BME280;72058;47.782;10.618;2024-02-26T12:30:18;91718.38;;;10.10;53.13
82416;BME280;72058;47.782;10.618;2024-02-26T12:32:45;91729.69;;;10.12;52.40
82416;BME280;72058;47.782;10.618;2024-02-26T12:35:11;91734.25;;;10.08;53.28
82416;BME280;72058;47.782;10.618;2024-02-26T12:37:38;91733.25;;;10.16;52.33
82416;BME280;72058;47.782;10.618;2024-02-26T12:40:08;91735.53;;;10.14;52.30
82416;BME280;72058;47.782;10.618;2024-02-26T12:42:34;91738.25;;;10.14;52.82
82416;BME280;72058;47.782;10.618;2024-02-26T12:45:14;91745.19;;;10.12;52.93
82416;BME280;72058;47.782;10.618;2024-02-26T12:47:44;91756.34;;;10.07;52.09
82416;BME280;72058;47.782;10.618;2024-02-26T12:50:15;91757.56;;;10.09;51.59
82416;BME280;72058;47.782;10.618;2024-02-26T12:52:44;91768.44;;;10.09;52.62
82416;BME280;72058;47.782;10.618;2024-02-26T12:55:14;91778.06;;;10.07;53.67
82416;BME280;72058;47.782;10.618;2024-02-26T12:57:41;91776.50;;;10.06;53.85
82416;BME280;72058;47.782;10.618;2024-02-26T13:00:12;91780.78;;;10.07;54.10
82416;BME280;72058;47.782;10.618;2024-02-26T13:02:38;91788.50;;;10.05;54.06